createdAt,value
2019-02-05T00:00:33.610Z,93.10
2019-02-05T00:03:02.463Z,92.70
2019-02-05T00:05:30.964Z,92.50
2019-02-05T00:07:59.627Z,92.80
2019-02-05T00:10:28.209Z,92.50
2019-02-05T00:12:56.723Z,92.60
2019-02-05T00:15:25.427Z,92.10
2019-02-05T00:17:54.012Z,92.20
2019-02-05T00:20:22.585Z,91.60
2019-02-05T00:22:51.309Z,92.20
2019-02-05T00:25:19.910Z,92.20
2019-02-05T00:27:48.536Z,92.10
2019-02-05T00:30:17.226Z,92.20
2019-02-05T00:32:46.124Z,91.90
2019-02-05T00:35:14.763Z,92.10
2019-02-05T00:37:43.475Z,92.10
2019-02-05T00:40:13.954Z,91.60
2019-02-05T00:42:42.612Z,91.90
2019-02-05T00:45:19.695Z,91.80
2019-02-05T00:47:48.131Z,91.90
2019-02-05T00:50:18.753Z,92.10
2019-02-05T00:52:47.393Z,92.20
2019-02-05T00:55:17.459Z,92.00
2019-02-05T00:57:46.035Z,92.10
2019-02-05T01:00:26.299Z,91.70
2019-02-05T01:02:54.907Z,91.50
2019-02-05T01:05:23.469Z,91.90
2019-02-05T01:07:52.139Z,92.10
2019-02-05T01:10:20.715Z,92.20
2019-02-05T01:12:49.330Z,91.90
2019-02-05T01:15:19.428Z,92.10
2019-02-05T01:17:47.996Z,92.50
2019-02-05T01:20:18.244Z,92.30
2019-02-05T01:22:46.986Z,91.90
2019-02-05T01:25:16.948Z,92.10
2019-02-05T01:27:45.555Z,92.00
2019-02-05T01:30:22.163Z,91.60
2019-02-05T01:32:50.954Z,91.70
2019-02-05T01:35:19.611Z,91.80
2019-02-05T01:37:48.211Z,91.90
2019-02-05T01:40:21.179Z,91.80
2019-02-05T01:42:49.757Z,91.60
2019-02-05T01:45:19.772Z,91.10
2019-02-05T01:47:48.301Z,91.50
2019-02-05T01:50:21.923Z,91.30
2019-02-05T01:52:50.465Z,91.10
2019-02-05T01:55:19.523Z,91.00
2019-02-05T01:57:48.084Z,91.20
2019-02-05T02:00:25.508Z,90.80
2019-02-05T02:02:54.142Z,91.00
2019-02-05T02:05:22.806Z,91.30
2019-02-05T02:07:51.491Z,90.50
2019-02-05T02:10:25.102Z,90.20
2019-02-05T02:12:54.109Z,90.60
2019-02-05T02:15:22.690Z,90.70
2019-02-05T02:17:51.339Z,90.20
2019-02-05T02:20:20.795Z,90.40
2019-02-05T02:22:49.436Z,90.60
2019-02-05T02:25:17.954Z,90.00
2019-02-05T02:27:47.115Z,90.40
2019-02-05T02:30:18.971Z,89.90
2019-02-05T02:32:47.628Z,90.50
2019-02-05T02:35:16.043Z,90.10
2019-02-05T02:37:44.668Z,89.80
2019-02-05T02:40:13.428Z,89.60
2019-02-05T02:42:42.085Z,89.60
2019-02-05T02:45:12.850Z,89.80
2019-02-05T02:47:41.411Z,89.20
2019-02-05T02:50:12.909Z,90.00
2019-02-05T02:52:41.491Z,89.50
2019-02-05T02:55:09.915Z,88.60
2019-02-05T02:57:38.555Z,89.30
2019-02-05T03:00:10.249Z,88.80
2019-02-05T03:02:38.720Z,89.80
2019-02-05T03:05:09.931Z,90.00
2019-02-05T03:07:38.568Z,90.00
2019-02-05T03:10:10.756Z,89.00
2019-02-05T03:12:39.327Z,88.70
2019-02-05T03:15:10.035Z,88.20
2019-02-05T03:17:38.692Z,89.60
2019-02-05T03:20:12.853Z,88.80
2019-02-05T03:22:41.478Z,88.70
2019-02-05T03:25:25.389Z,87.50
2019-02-05T03:27:54.406Z,88.90
2019-02-05T03:30:24.621Z,89.50
2019-02-05T03:32:55.112Z,89.80
2019-02-05T03:35:24.029Z,89.30
2019-02-05T03:37:52.600Z,90.00
2019-02-05T03:40:27.108Z,89.50
2019-02-05T03:42:55.651Z,88.40
2019-02-05T03:45:24.805Z,89.20
2019-02-05T03:47:53.858Z,88.00
2019-02-05T03:50:22.421Z,89.20
2019-02-05T03:53:00.084Z,88.50
2019-02-05T03:55:48.459Z,88.70
2019-02-05T03:58:25.916Z,89.50
2019-02-05T04:01:12.004Z,88.60
2019-02-05T04:03:46.432Z,87.80
2019-02-05T04:06:20.789Z,88.40
2019-02-05T04:09:01.164Z,89.30
2019-02-05T04:11:42.276Z,89.80
2019-02-05T04:14:19.828Z,87.80
2019-02-05T04:17:00.581Z,87.80
2019-02-05T04:19:58.251Z,87.80
2019-02-05T04:22:32.901Z,87.00
2019-02-05T04:25:22.467Z,88.00
2019-02-05T04:28:09.316Z,89.20
2019-02-05T04:30:47.202Z,87.50
2019-02-05T04:33:40.036Z,88.30
2019-02-05T04:36:23.748Z,88.30
2019-02-05T04:39:11.939Z,88.40
2019-02-05T04:41:49.186Z,88.50
2019-02-05T04:44:26.548Z,88.40
2019-02-05T04:47:19.532Z,88.20
2019-02-05T04:50:03.388Z,88.00
2019-02-05T04:52:54.883Z,88.80
2019-02-05T04:55:35.715Z,86.50
2019-02-05T04:58:10.341Z,88.10
2019-02-05T05:00:47.714Z,87.60
2019-02-05T05:03:22.301Z,87.70
2019-02-05T05:06:14.910Z,88.20
2019-02-05T05:08:46.675Z,88.40
2019-02-05T05:11:15.483Z,87.60
2019-02-05T05:13:44.035Z,88.50
2019-02-05T05:16:12.716Z,87.30
2019-02-05T05:18:41.204Z,86.50
2019-02-05T05:21:09.907Z,87.30
2019-02-05T05:23:38.476Z,87.70
2019-02-05T05:26:07.116Z,87.00
2019-02-05T05:28:36.131Z,86.60
2019-02-05T05:31:04.699Z,87.60
2019-02-05T05:33:33.287Z,87.90
2019-02-05T05:36:01.836Z,87.60
2019-02-05T05:38:30.420Z,88.00
2019-02-05T05:40:58.979Z,86.60
2019-02-05T05:43:27.617Z,86.20
2019-02-05T05:45:56.500Z,86.60
2019-02-05T05:48:25.092Z,87.60
2019-02-05T05:50:53.664Z,87.00
2019-02-05T05:53:22.299Z,87.30
2019-02-05T05:55:50.956Z,86.80
2019-02-05T05:58:22.623Z,86.80
2019-02-05T06:00:49.914Z,87.20
2019-02-05T06:03:18.567Z,87.20
2019-02-05T06:05:47.132Z,87.60
2019-02-05T06:08:15.711Z,86.10
2019-02-05T06:10:44.283Z,87.00
2019-02-05T06:13:12.978Z,86.60
2019-02-05T06:15:41.555Z,86.50
2019-02-05T06:18:10.228Z,87.20
2019-02-05T06:20:38.940Z,87.40
2019-02-05T06:23:07.498Z,87.90
2019-02-05T06:25:36.155Z,88.10
2019-02-05T06:28:04.811Z,87.50
2019-02-05T06:30:33.291Z,88.20
2019-02-05T06:33:01.922Z,88.90
2019-02-05T06:35:30.964Z,89.50
2019-02-05T06:37:59.507Z,88.10
2019-02-05T06:40:28.356Z,89.00
2019-02-05T06:42:56.978Z,88.10
2019-02-05T06:45:25.460Z,88.00
2019-02-05T06:47:54.031Z,87.90
2019-02-05T06:50:22.644Z,87.70
2019-02-05T06:52:51.570Z,88.00
2019-02-05T06:55:20.229Z,88.60
2019-02-05T06:57:48.946Z,89.20
2019-02-05T07:00:22.651Z,89.40
2019-02-05T07:02:53.082Z,89.00
2019-02-05T07:05:21.588Z,88.90
2019-02-05T07:07:50.083Z,88.90
2019-02-05T07:10:21.557Z,88.50
2019-02-05T07:12:50.170Z,89.30
2019-02-05T07:15:18.811Z,89.00
2019-02-05T07:17:49.694Z,88.80
2019-02-05T07:23:47.164Z,87.50
2019-02-05T07:26:15.750Z,88.40
2019-02-05T07:28:44.467Z,88.20
2019-02-05T07:31:13.091Z,87.80
2019-02-05T07:33:41.748Z,88.00
2019-02-05T07:36:10.316Z,88.70
2019-02-05T07:38:39.069Z,88.60
2019-02-05T07:41:07.735Z,88.90
2019-02-05T07:43:36.290Z,88.60
2019-02-05T07:46:04.965Z,87.80
2019-02-05T07:48:33.533Z,87.50
2019-02-05T07:51:02.036Z,87.20
2019-02-05T07:53:33.218Z,86.90
2019-02-05T07:56:00.781Z,88.30
2019-02-05T07:58:29.355Z,87.60
2019-02-05T08:00:58.052Z,87.90
2019-02-05T08:03:26.644Z,88.10
2019-02-05T08:05:55.612Z,88.40
2019-02-05T08:08:24.219Z,88.20
2019-02-05T08:10:52.854Z,88.40
2019-02-05T08:13:21.370Z,88.40
2019-02-05T08:15:50.004Z,87.90
2019-02-05T08:18:18.572Z,88.20
2019-02-05T08:20:47.228Z,86.60
2019-02-05T08:23:15.915Z,87.50
2019-02-05T08:25:44.772Z,88.00
2019-02-05T08:28:13.436Z,86.80
2019-02-05T08:30:47.823Z,87.50
2019-02-05T08:33:16.330Z,87.60
2019-02-05T08:35:45.036Z,86.90
2019-02-05T08:38:13.627Z,86.50
2019-02-05T08:40:42.461Z,86.10
2019-02-05T08:43:11.026Z,86.80
2019-02-05T08:45:39.597Z,86.40
2019-02-05T08:48:12.668Z,86.50
2019-02-05T08:50:41.340Z,86.40
2019-02-05T08:53:10.010Z,86.40
2019-02-05T08:55:38.583Z,86.10
2019-02-05T08:58:12.700Z,85.60
2019-02-05T09:00:42.419Z,85.40
2019-02-05T09:03:13.893Z,84.90
2019-02-05T09:05:42.509Z,85.30
2019-02-05T09:08:11.139Z,84.10
2019-02-05T09:10:41.573Z,85.00
2019-02-05T09:13:10.436Z,85.20
2019-02-05T09:15:39.163Z,85.00
2019-02-05T09:18:07.821Z,85.10
2019-02-05T09:20:36.338Z,84.40
2019-02-05T09:23:05.758Z,84.50
2019-02-05T09:25:34.380Z,85.50
2019-02-05T09:28:02.936Z,85.90
2019-02-05T09:30:34.055Z,85.70
2019-02-05T09:33:05.323Z,84.00
2019-02-05T09:35:33.924Z,82.80
2019-02-05T09:38:02.646Z,83.70
2019-02-05T09:40:32.617Z,83.30
2019-02-05T09:43:01.197Z,83.70
2019-02-05T09:45:31.003Z,84.40
2019-02-05T09:48:00.053Z,85.30
2019-02-05T09:50:30.854Z,85.50
2019-02-05T09:52:58.840Z,85.40
2019-02-05T09:55:27.582Z,82.60
2019-02-05T09:57:56.220Z,83.60
2019-02-05T10:00:26.633Z,84.30
2019-02-05T10:02:55.420Z,83.90
2019-02-05T10:05:28.838Z,83.80
2019-02-05T10:07:57.532Z,83.80
2019-02-05T10:10:26.171Z,84.00
2019-02-05T10:12:54.788Z,85.00
2019-02-05T10:15:35.317Z,84.80
2019-02-05T10:18:04.374Z,84.20
2019-02-05T10:20:32.964Z,83.50
2019-02-05T10:23:02.700Z,83.20
2019-02-05T10:25:31.275Z,83.40
2019-02-05T10:27:59.796Z,83.10
2019-02-05T10:30:37.143Z,82.70
2019-02-05T10:33:06.787Z,82.20
2019-02-05T10:35:35.454Z,82.60
2019-02-05T10:38:04.375Z,82.10
2019-02-05T10:40:32.935Z,82.40
2019-02-05T10:43:01.498Z,81.30
2019-02-05T10:45:30.068Z,81.30
2019-02-05T10:47:58.708Z,80.90
2019-02-05T10:50:27.294Z,81.50
2019-02-05T10:52:55.850Z,81.80
2019-02-05T10:55:24.388Z,81.50
2019-02-05T10:57:54.430Z,81.80
2019-02-05T11:00:28.251Z,82.10
2019-02-05T11:02:57.978Z,81.60
2019-02-05T11:05:28.109Z,82.60
2019-02-05T11:07:56.821Z,81.70
2019-02-05T11:10:25.291Z,81.70
2019-02-05T11:12:53.866Z,82.10
2019-02-05T11:15:27.867Z,81.70
2019-02-05T11:17:56.436Z,81.30
2019-02-05T11:20:26.725Z,81.70
2019-02-05T11:22:55.338Z,81.80
2019-02-05T11:25:23.916Z,82.00
2019-02-05T11:27:52.572Z,82.30
2019-02-05T11:30:30.036Z,80.50
2019-02-05T11:32:58.627Z,81.20
2019-02-05T11:35:27.219Z,81.70
2019-02-05T11:37:55.771Z,82.50
2019-02-05T11:40:29.706Z,82.30
2019-02-05T11:42:58.151Z,81.80
2019-02-05T11:45:26.821Z,81.50
2019-02-05T11:47:55.462Z,81.60
2019-02-05T11:50:24.147Z,81.50
2019-02-05T11:52:53.294Z,81.50
2019-02-05T11:55:24.532Z,81.60
2019-02-05T11:57:53.084Z,82.00
2019-02-05T12:00:39.790Z,81.80
2019-02-05T12:03:09.625Z,81.50
2019-02-05T12:05:38.617Z,81.70
2019-02-05T12:08:07.524Z,82.10
2019-02-05T12:10:36.171Z,81.90
2019-02-05T12:13:04.694Z,82.40
2019-02-05T12:15:33.324Z,82.50
2019-02-05T12:18:01.854Z,82.60
2019-02-05T12:20:30.418Z,82.10
2019-02-05T12:22:59.392Z,82.50
2019-02-05T12:25:27.892Z,82.40
2019-02-05T12:27:56.485Z,83.10
2019-02-05T12:30:45.046Z,82.80
2019-02-05T12:33:10.100Z,82.10
2019-02-05T12:35:38.784Z,82.30
2019-02-05T12:38:07.612Z,82.20
2019-02-05T12:40:36.269Z,82.00
2019-02-05T12:43:05.263Z,83.00
2019-02-05T12:45:36.059Z,82.70
2019-02-05T12:48:04.717Z,82.30
2019-02-05T12:50:36.235Z,82.90
2019-02-05T12:53:05.289Z,82.60
2019-02-05T12:55:33.935Z,82.40
2019-02-05T12:58:02.509Z,83.10
2019-02-05T13:00:42.860Z,83.00
2019-02-05T13:03:12.112Z,83.50
2019-02-05T13:05:41.573Z,83.40
2019-02-05T13:08:10.291Z,83.30
2019-02-05T13:10:44.604Z,83.40
2019-02-05T13:13:13.188Z,83.40
2019-02-05T13:15:41.917Z,83.10
2019-02-05T13:18:10.453Z,83.40
2019-02-05T13:20:39.359Z,83.10
2019-02-05T13:23:08.381Z,83.80
2019-02-05T13:25:36.884Z,84.00
2019-02-05T13:28:07.314Z,84.40
2019-02-05T13:30:37.028Z,84.40
2019-02-05T13:33:07.493Z,84.60
2019-02-05T13:35:36.314Z,84.80
2019-02-05T13:38:05.204Z,85.00
2019-02-05T13:40:33.796Z,84.90
2019-02-05T13:43:02.365Z,84.60
2019-02-05T13:45:35.790Z,85.10
2019-02-05T13:48:05.251Z,84.80
2019-02-05T13:50:33.958Z,85.20
2019-02-05T13:53:02.562Z,84.90
2019-02-05T13:55:39.142Z,84.80
2019-02-05T13:58:07.683Z,85.20
2019-02-05T14:00:38.811Z,85.00
2019-02-05T14:03:08.971Z,84.80
2019-02-05T14:05:37.660Z,84.80
2019-02-05T14:08:06.286Z,85.20
2019-02-05T14:10:36.659Z,85.10
2019-02-05T14:13:05.675Z,85.10
2019-02-05T14:15:36.404Z,85.30
2019-02-05T14:18:06.168Z,85.20
2019-02-05T14:20:34.776Z,85.40
2019-02-05T14:23:03.355Z,85.90
2019-02-05T14:25:31.954Z,85.80
2019-02-05T14:28:00.508Z,85.80
2019-02-05T14:30:49.781Z,86.30
2019-02-05T14:33:18.467Z,86.30
2019-02-05T14:35:47.049Z,86.70
2019-02-05T14:38:15.542Z,86.90
2019-02-05T14:40:44.123Z,87.20
2019-02-05T14:43:12.748Z,87.70
2019-02-05T14:45:41.691Z,87.40
2019-02-05T14:48:10.404Z,87.70
2019-02-05T14:50:41.883Z,87.50
2019-02-05T14:53:10.844Z,87.20
2019-02-05T14:55:39.522Z,87.00
2019-02-05T14:58:09.683Z,87.10
2019-02-05T15:00:38.646Z,87.50
2019-02-05T15:03:14.119Z,87.40
2019-02-05T15:05:43.482Z,87.50
2019-02-05T15:08:12.727Z,87.80
2019-02-05T15:10:41.284Z,87.70
2019-02-05T15:13:09.893Z,87.90
2019-02-05T15:15:38.458Z,88.10
2019-02-05T15:18:08.396Z,88.20
2019-02-05T15:20:40.112Z,88.40
2019-02-05T15:23:08.731Z,88.60
2019-02-05T15:25:37.426Z,88.60
2019-02-05T15:28:05.979Z,88.60
2019-02-05T15:30:37.227Z,88.90
2019-02-05T15:33:25.794Z,89.10
2019-02-05T15:36:02.026Z,89.00
2019-02-05T15:38:30.946Z,89.30
2019-02-05T15:40:59.572Z,89.40
2019-02-05T15:43:28.229Z,89.70
2019-02-05T15:45:56.931Z,89.70
2019-02-05T15:48:25.531Z,89.90
2019-02-05T15:50:54.141Z,89.90
2019-02-05T15:53:23.102Z,90.00
2019-02-05T15:55:51.731Z,90.10
2019-02-05T15:58:20.314Z,90.20
2019-02-05T16:00:48.917Z,90.30
2019-02-05T16:03:17.484Z,90.30
2019-02-05T16:05:45.932Z,90.40
2019-02-05T16:08:14.450Z,90.40
2019-02-05T16:10:43.300Z,90.40
2019-02-05T16:13:11.860Z,90.40
2019-02-05T16:15:40.588Z,90.50
2019-02-05T16:18:09.255Z,90.50
2019-02-05T16:20:37.828Z,90.60
2019-02-05T16:23:06.453Z,90.50
2019-02-05T16:25:35.499Z,90.60
2019-02-05T16:28:04.162Z,90.70
2019-02-05T16:30:33.363Z,90.70
2019-02-05T16:33:01.932Z,90.60
2019-02-05T16:35:30.539Z,90.70
2019-02-05T16:37:59.178Z,90.80
2019-02-05T16:40:30.790Z,90.80
2019-02-05T16:42:59.363Z,90.90
2019-02-05T16:45:31.915Z,90.90
2019-02-05T16:48:00.497Z,90.90
2019-02-05T16:50:49.044Z,90.90
2019-02-05T16:53:17.627Z,91.00
2019-02-05T16:55:46.163Z,90.90
2019-02-05T16:58:14.787Z,91.00
2019-02-05T17:00:43.468Z,91.10
2019-02-05T17:03:12.029Z,91.10
2019-02-05T17:05:42.247Z,91.10
2019-02-05T17:08:12.707Z,91.10
2019-02-05T17:10:41.292Z,91.20
2019-02-05T17:13:11.747Z,91.20
2019-02-05T17:15:40.101Z,91.20
2019-02-05T17:18:08.691Z,91.30
2019-02-05T17:20:37.174Z,91.30
2019-02-05T17:23:06.098Z,91.30
2019-02-05T17:25:36.044Z,91.40
2019-02-05T17:28:06.299Z,91.40
2019-02-05T17:30:40.099Z,91.60
2019-02-05T17:33:08.628Z,91.50
2019-02-05T17:35:37.249Z,91.60
2019-02-05T17:38:07.717Z,91.50
2019-02-05T17:40:36.371Z,91.60
2019-02-05T17:43:05.460Z,91.70
2019-02-05T17:45:36.106Z,91.50
2019-02-05T17:48:07.533Z,91.60
2019-02-05T17:50:36.171Z,91.60
2019-02-05T17:53:04.756Z,91.70
2019-02-05T17:55:33.258Z,91.70
2019-02-05T17:58:01.858Z,91.60
2019-02-05T18:00:33.851Z,91.80
2019-02-05T18:03:02.451Z,91.90
2019-02-05T18:05:31.114Z,91.80
2019-02-05T18:07:59.889Z,91.80
2019-02-05T18:10:28.763Z,91.90
2019-02-05T18:12:57.324Z,91.90
2019-02-05T18:15:31.313Z,92.10
2019-02-05T18:17:59.823Z,92.00
2019-02-05T18:20:28.435Z,92.10
2019-02-05T18:22:57.051Z,92.10
2019-02-05T18:25:25.540Z,92.10
2019-02-05T18:27:54.252Z,92.20
2019-02-05T18:30:33.811Z,92.20
2019-02-05T18:33:04.457Z,92.20
2019-02-05T18:35:32.770Z,92.30
2019-02-05T18:38:02.228Z,92.30
2019-02-05T18:40:30.959Z,92.30
2019-02-05T18:42:59.548Z,92.40
2019-02-05T18:45:28.196Z,92.30
2019-02-05T18:47:56.916Z,92.40
2019-02-05T18:50:28.444Z,92.40
2019-02-05T18:52:57.076Z,92.50
2019-02-05T18:55:28.497Z,92.50
2019-02-05T18:58:08.473Z,92.40
2019-02-05T19:00:38.505Z,92.50
2019-02-05T19:03:14.873Z,92.50
2019-02-05T19:05:36.252Z,92.60
2019-02-05T19:08:05.188Z,92.70
2019-02-05T19:10:33.740Z,92.50
2019-02-05T19:13:02.391Z,92.50
2019-02-05T19:15:32.898Z,92.70
2019-02-05T19:18:01.807Z,92.70
2019-02-05T19:20:31.681Z,92.70
2019-02-05T19:23:00.980Z,92.90
2019-02-05T19:25:43.220Z,92.90
2019-02-05T19:28:13.438Z,92.90
2019-02-05T19:30:47.028Z,92.90
2019-02-05T19:33:26.479Z,92.90
2019-02-05T19:35:45.914Z,92.90
2019-02-05T19:38:14.504Z,92.90
2019-02-05T19:40:43.133Z,92.90
2019-02-05T19:43:11.691Z,93.00
2019-02-05T19:45:48.071Z,93.00
2019-02-05T19:48:18.346Z,93.00
2019-02-05T19:50:47.403Z,92.90
2019-02-05T19:53:16.107Z,93.00
2019-02-05T19:55:44.764Z,93.00
2019-02-05T19:58:13.339Z,93.00
2019-02-05T20:00:42.012Z,93.00
2019-02-05T20:03:10.867Z,93.10
2019-02-05T20:05:39.427Z,93.00
2019-02-05T20:08:08.003Z,93.10
2019-02-05T20:10:36.715Z,93.10
2019-02-05T20:13:05.276Z,93.10
2019-02-05T20:15:33.916Z,93.10
2019-02-05T20:18:02.581Z,93.20
2019-02-05T20:20:31.786Z,93.30
2019-02-05T20:23:00.579Z,93.20
2019-02-05T20:25:29.147Z,93.30
2019-02-05T20:27:57.802Z,93.20
2019-02-05T20:30:27.053Z,93.20
2019-02-05T20:32:55.645Z,93.20
2019-02-05T20:35:24.156Z,93.10
2019-02-05T20:37:53.002Z,93.00
2019-02-05T20:40:23.533Z,92.90
2019-02-05T20:42:52.197Z,93.10
2019-02-05T20:45:20.836Z,92.90
2019-02-05T20:47:49.338Z,93.00
2019-02-05T20:50:19.102Z,93.00
2019-02-05T20:52:47.691Z,93.10
2019-02-05T20:55:21.652Z,93.10
2019-02-05T20:57:50.270Z,93.10
2019-02-05T21:00:21.686Z,93.20
2019-02-05T21:02:51.259Z,93.20
2019-02-05T21:05:20.517Z,93.20
2019-02-05T21:07:49.409Z,93.20
2019-02-05T21:10:28.812Z,93.20
2019-02-05T21:12:57.467Z,93.20
2019-02-05T21:15:25.924Z,93.20
2019-02-05T21:17:54.559Z,93.20
2019-02-05T21:20:30.617Z,93.20
2019-02-05T21:22:57.621Z,93.20
2019-02-05T21:25:26.300Z,93.20
2019-02-05T21:27:57.768Z,93.20
2019-02-05T21:30:25.387Z,93.00
2019-02-05T21:32:54.020Z,93.00
2019-02-05T21:35:22.620Z,93.00
2019-02-05T21:37:51.122Z,93.00
2019-02-05T21:40:24.596Z,93.00
2019-02-05T21:42:53.180Z,93.00
2019-02-05T21:45:30.140Z,93.00
2019-02-05T21:47:58.577Z,92.90
2019-02-05T21:50:27.171Z,92.90
2019-02-05T21:52:56.317Z,92.90
2019-02-05T21:55:28.333Z,93.00
2019-02-05T21:57:56.994Z,92.90
2019-02-05T22:00:35.550Z,92.90
2019-02-05T22:03:05.620Z,92.90
2019-02-05T22:05:34.052Z,92.90
2019-02-05T22:08:02.988Z,92.80
2019-02-05T22:10:31.499Z,92.90
2019-02-05T22:13:00.234Z,92.70
2019-02-05T22:15:29.405Z,92.70
2019-02-05T22:17:58.036Z,92.60
2019-02-05T22:20:27.707Z,92.70
2019-02-05T22:22:56.829Z,92.70
2019-02-05T22:25:29.135Z,92.70
2019-02-05T22:27:57.668Z,93.00
2019-02-05T22:30:28.805Z,92.70
2019-02-05T22:32:57.480Z,92.70
2019-02-05T22:35:26.092Z,92.60
2019-02-05T22:37:55.216Z,92.60
2019-02-05T22:40:26.228Z,92.60
2019-02-05T22:42:54.708Z,92.60
2019-02-05T22:45:28.986Z,92.70
2019-02-05T22:47:57.636Z,92.70
2019-02-05T22:50:28.013Z,92.70
2019-02-05T22:52:56.715Z,92.60
2019-02-05T22:55:25.371Z,92.60
2019-02-05T22:57:54.036Z,92.60
2019-02-05T23:00:49.941Z,92.60
2019-02-05T23:03:24.511Z,92.60
2019-02-05T23:06:13.218Z,92.50
2019-02-05T23:08:41.755Z,92.60
2019-02-05T23:11:44.948Z,92.60
2019-02-05T23:14:13.596Z,92.60
2019-02-05T23:16:42.258Z,92.60
2019-02-05T23:19:10.875Z,92.70
2019-02-05T23:21:39.651Z,92.60
2019-02-05T23:24:08.228Z,92.70
2019-02-05T23:26:36.874Z,92.60
2019-02-05T23:29:05.404Z,92.60
2019-02-05T23:31:34.067Z,92.70
2019-02-05T23:34:02.788Z,92.70
2019-02-05T23:36:31.434Z,92.60
2019-02-05T23:38:59.941Z,92.60
2019-02-05T23:41:28.499Z,92.60
2019-02-05T23:43:57.046Z,92.60
2019-02-05T23:46:25.663Z,92.60
2019-02-05T23:48:54.283Z,92.50
2019-02-05T23:51:22.812Z,92.50
2019-02-05T23:53:51.842Z,92.50
2019-02-05T23:56:25.630Z,92.40
2019-02-05T23:58:50.772Z,92.40
